createdAt,value
2018-05-01T00:00:43.201Z,20.29
2018-05-01T00:01:43.280Z,20.27
2018-05-01T00:02:43.204Z,20.46
2018-05-01T00:03:43.244Z,20.29
2018-05-01T00:04:43.271Z,20.26
2018-05-01T00:05:43.334Z,20.44
2018-05-01T00:06:43.261Z,20.27
2018-05-01T00:07:43.181Z,20.26
2018-05-01T00:08:43.248Z,20.45
2018-05-01T00:09:43.407Z,20.27
2018-05-01T00:10:43.336Z,20.25
2018-05-01T00:11:43.354Z,20.44
2018-05-01T00:12:43.276Z,20.26
2018-05-01T00:13:43.386Z,20.25
2018-05-01T00:14:43.320Z,20.44
2018-05-01T00:15:43.345Z,20.26
2018-05-01T00:16:43.325Z,20.24
2018-05-01T00:17:43.278Z,20.42
2018-05-01T00:18:43.188Z,20.27
2018-05-01T00:19:43.263Z,20.25
2018-05-01T00:20:43.319Z,20.43
2018-05-01T00:21:43.160Z,20.25
2018-05-01T00:22:43.387Z,20.24
2018-05-01T00:23:43.360Z,20.42
2018-05-01T00:24:43.273Z,20.25
2018-05-01T00:25:43.208Z,20.24
2018-05-01T00:26:43.166Z,20.42
2018-05-01T00:27:43.269Z,20.25
2018-05-01T00:28:43.269Z,20.24
2018-05-01T00:29:43.369Z,20.42
2018-05-01T00:30:43.345Z,20.24
2018-05-01T00:31:43.187Z,20.21
2018-05-01T00:32:43.308Z,20.41
2018-05-01T00:33:43.136Z,20.24
2018-05-01T00:34:43.145Z,20.23
2018-05-01T00:35:43.380Z,20.41
2018-05-01T00:36:43.268Z,20.24
2018-05-01T00:37:43.111Z,20.22
2018-05-01T00:38:43.339Z,20.4
2018-05-01T00:39:43.338Z,20.23
2018-05-01T00:40:43.139Z,20.21
2018-05-01T00:41:43.301Z,20.4
2018-05-01T00:42:43.242Z,20.24
2018-05-01T00:43:43.267Z,20.21
2018-05-01T00:44:43.268Z,20.39
2018-05-01T00:45:43.236Z,20.23
2018-05-01T00:46:43.306Z,20.21
2018-05-01T00:47:43.431Z,20.41
2018-05-01T00:48:43.299Z,20.22
2018-05-01T00:49:43.224Z,20.2
2018-05-01T00:50:43.248Z,20.38
2018-05-01T00:51:43.724Z,20.24
2018-05-01T00:52:43.474Z,20.2
2018-05-01T00:53:43.418Z,20.39
2018-05-01T00:54:43.306Z,20.21
2018-05-01T00:55:43.228Z,20.2
2018-05-01T00:56:43.186Z,20.39
2018-05-01T00:57:43.348Z,20.23
2018-05-01T00:58:43.407Z,20.2
2018-05-01T00:59:43.144Z,20.38
2018-05-01T01:00:43.302Z,20.22
2018-05-01T01:01:43.360Z,20.2
2018-05-01T01:02:43.231Z,20.38
2018-05-01T01:03:44.064Z,20.21
2018-05-01T01:04:43.260Z,20.19
2018-05-01T01:05:43.438Z,20.38
2018-05-01T01:06:43.341Z,20.22
2018-05-01T01:07:43.342Z,20.2
2018-05-01T01:08:43.365Z,20.39
2018-05-01T01:09:43.094Z,20.19
2018-05-01T01:10:43.168Z,20.18
2018-05-01T01:11:43.375Z,20.36
2018-05-01T01:12:43.367Z,20.18
2018-05-01T01:13:43.296Z,20.16
2018-05-01T01:14:43.172Z,20.35
2018-05-01T01:15:43.125Z,20.18
2018-05-01T01:16:43.323Z,20.15
2018-05-01T01:17:43.284Z,20.35
2018-05-01T01:19:06.900Z,20.17
2018-05-01T01:19:43.298Z,20.17
2018-05-01T01:20:43.290Z,20.35
2018-05-01T01:21:43.157Z,20.18
2018-05-01T01:22:43.377Z,20.16
2018-05-01T01:23:43.349Z,20.35
2018-05-01T01:24:43.229Z,20.18
2018-05-01T01:25:43.369Z,20.17
2018-05-01T01:26:43.223Z,20.35
2018-05-01T01:27:43.307Z,20.18
2018-05-01T01:28:43.312Z,20.17
2018-05-01T01:29:43.426Z,20.35
2018-05-01T01:30:43.173Z,20.18
2018-05-01T01:31:43.227Z,20.16
2018-05-01T01:32:43.295Z,20.35
2018-05-01T01:33:43.357Z,20.17
2018-05-01T01:34:43.330Z,20.14
2018-05-01T01:35:43.229Z,20.33
2018-05-01T01:36:43.271Z,20.17
2018-05-01T01:37:43.127Z,20.14
2018-05-01T01:38:43.248Z,20.33
2018-05-01T01:39:43.226Z,20.16
2018-05-01T01:40:43.233Z,20.14
2018-05-01T01:41:43.226Z,20.32
2018-05-01T01:42:43.275Z,20.16
2018-05-01T01:43:43.239Z,20.13
2018-05-01T01:44:43.446Z,20.32
2018-05-01T01:45:43.248Z,20.16
2018-05-01T01:46:43.215Z,20.14
2018-05-01T01:47:43.206Z,20.34
2018-05-01T01:48:43.246Z,20.17
2018-05-01T01:49:43.173Z,20.14
2018-05-01T01:50:43.187Z,20.33
2018-05-01T01:51:43.309Z,20.16
2018-05-01T01:52:43.221Z,20.13
2018-05-01T01:53:43.229Z,20.32
2018-05-01T01:54:43.220Z,20.15
2018-05-01T01:55:43.197Z,20.12
2018-05-01T01:56:43.224Z,20.31
2018-05-01T01:57:43.159Z,20.13
2018-05-01T01:58:43.227Z,20.12
2018-05-01T01:59:43.247Z,20.32
2018-05-01T02:00:43.294Z,20.14
2018-05-01T02:01:43.291Z,20.12
2018-05-01T02:02:43.162Z,20.3
2018-05-01T02:03:43.179Z,20.14
2018-05-01T02:04:43.191Z,20.12
2018-05-01T02:05:43.235Z,20.3
2018-05-01T02:06:43.222Z,20.14
2018-05-01T02:07:43.331Z,20.12
2018-05-01T02:08:43.480Z,20.31
2018-05-01T02:09:43.443Z,20.14
2018-05-01T02:10:43.374Z,20.12
2018-05-01T02:11:43.388Z,20.3
2018-05-01T02:12:43.211Z,20.12
2018-05-01T02:13:43.363Z,20.11
2018-05-01T02:14:43.217Z,20.3
2018-05-01T02:15:43.081Z,20.14
2018-05-01T02:16:43.342Z,20.12
2018-05-01T02:17:43.321Z,20.3
2018-05-01T02:18:43.282Z,20.12
2018-05-01T02:19:43.289Z,20.09
2018-05-01T02:20:43.192Z,20.29
2018-05-01T02:21:43.359Z,20.12
2018-05-01T02:22:43.284Z,20.11
2018-05-01T02:23:43.170Z,20.29
2018-05-01T02:24:43.331Z,20.12
2018-05-01T02:25:43.240Z,20.1
2018-05-01T02:26:43.300Z,20.28
2018-05-01T02:27:43.165Z,20.11
2018-05-01T02:28:43.385Z,20.1
2018-05-01T02:29:43.120Z,20.28
2018-05-01T02:30:43.129Z,20.1
2018-05-01T02:31:43.258Z,20.09
2018-05-01T02:32:43.263Z,20.28
2018-05-01T02:33:43.249Z,20.11
2018-05-01T02:34:43.276Z,20.09
2018-05-01T02:35:43.363Z,20.28
2018-05-01T02:36:43.235Z,20.11
2018-05-01T02:37:43.192Z,20.08
2018-05-01T02:38:43.412Z,20.27
2018-05-01T02:39:43.333Z,20.11
2018-05-01T02:40:43.314Z,20.08
2018-05-01T02:41:43.236Z,20.27
2018-05-01T02:42:43.102Z,20.11
2018-05-01T02:43:43.159Z,20.08
2018-05-01T02:44:43.227Z,20.27
2018-05-01T02:45:43.305Z,20.1
2018-05-01T02:46:43.291Z,20.08
2018-05-01T02:47:43.181Z,20.26
2018-05-01T02:48:43.338Z,20.09
2018-05-01T02:49:43.208Z,20.07
2018-05-01T02:50:43.204Z,20.26
2018-05-01T02:51:43.240Z,20.09
2018-05-01T02:52:43.326Z,20.07
2018-05-01T02:53:43.109Z,20.26
2018-05-01T02:54:43.260Z,20.08
2018-05-01T02:55:43.214Z,20.07
2018-05-01T02:56:43.251Z,20.25
2018-05-01T02:57:43.202Z,20.07
2018-05-01T02:58:43.195Z,20.06
2018-05-01T02:59:43.125Z,20.25
2018-05-01T03:00:43.395Z,20.08
2018-05-01T03:01:43.316Z,20.06
2018-05-01T03:02:43.315Z,20.24
2018-05-01T03:03:43.212Z,20.07
2018-05-01T03:04:43.211Z,20.06
2018-05-01T03:05:43.154Z,20.24
2018-05-01T03:06:43.164Z,20.07
2018-05-01T03:07:43.138Z,20.06
2018-05-01T03:08:43.318Z,20.24
2018-05-01T03:09:43.703Z,20.06
2018-05-01T03:10:43.210Z,20.05
2018-05-01T03:11:43.269Z,20.24
2018-05-01T03:12:43.181Z,20.07
2018-05-01T03:13:43.270Z,20.05
2018-05-01T03:14:43.401Z,20.23
2018-05-01T03:15:43.268Z,20.06
2018-05-01T03:16:43.269Z,20.05
2018-05-01T03:17:43.204Z,20.22
2018-05-01T03:18:43.381Z,20.06
2018-05-01T03:19:43.169Z,20.04
2018-05-01T03:20:43.284Z,20.22
2018-05-01T03:21:43.260Z,20.06
2018-05-01T03:22:43.401Z,20.04
2018-05-01T03:23:43.333Z,20.23
2018-05-01T03:24:43.020Z,20.05
2018-05-01T03:25:43.141Z,20.02
2018-05-01T03:26:43.128Z,20.22
2018-05-01T03:27:43.260Z,20.05
2018-05-01T03:28:43.257Z,20.04
2018-05-01T03:29:43.328Z,20.24
2018-05-01T03:30:43.203Z,20.06
2018-05-01T03:31:43.121Z,20.04
2018-05-01T03:32:43.229Z,20.23
2018-05-01T03:33:43.411Z,20.04
2018-05-01T03:34:43.095Z,20.03
2018-05-01T03:35:43.134Z,20.21
2018-05-01T03:36:43.273Z,20.05
2018-05-01T03:37:43.359Z,20.02
2018-05-01T03:38:43.248Z,20.21
2018-05-01T03:39:43.211Z,20.03
2018-05-01T03:40:43.237Z,20
2018-05-01T03:41:43.254Z,20.2
2018-05-01T03:42:43.127Z,20.03
2018-05-01T03:43:43.375Z,20.01
2018-05-01T03:44:43.428Z,20.2
2018-05-01T03:45:43.224Z,20.04
2018-05-01T03:46:43.544Z,20.01
2018-05-01T03:47:43.396Z,20.19
2018-05-01T03:48:43.402Z,20.03
2018-05-01T03:49:43.067Z,20.01
2018-05-01T03:50:43.195Z,20.19
2018-05-01T03:51:43.296Z,20.02
2018-05-01T03:52:43.452Z,20.01
2018-05-01T03:53:43.106Z,20.19
2018-05-01T03:54:43.211Z,20.03
2018-05-01T03:55:43.282Z,20.01
2018-05-01T03:56:43.152Z,20.2
2018-05-01T03:57:43.291Z,20.02
2018-05-01T03:58:43.136Z,20
2018-05-01T03:59:43.241Z,20.18
2018-05-01T04:00:43.310Z,20.02
2018-05-01T04:01:43.180Z,20
2018-05-01T04:02:43.237Z,20.18
2018-05-01T04:03:43.151Z,20.01
2018-05-01T04:04:43.108Z,19.98
2018-05-01T04:05:43.360Z,20.18
2018-05-01T04:06:43.198Z,20.02
2018-05-01T04:07:43.288Z,20
2018-05-01T04:08:43.229Z,20.18
2018-05-01T04:10:07.044Z,20.01
2018-05-01T04:10:43.270Z,20
2018-05-01T04:11:43.301Z,20.18
2018-05-01T04:12:43.229Z,20
2018-05-01T04:13:43.347Z,19.98
2018-05-01T04:14:43.161Z,20.16
2018-05-01T04:15:43.359Z,20.01
2018-05-01T04:16:43.276Z,20
2018-05-01T04:17:43.063Z,20.18
2018-05-01T04:18:43.112Z,20.01
2018-05-01T04:19:43.313Z,19.99
2018-05-01T04:20:43.134Z,20.18
2018-05-01T04:21:43.422Z,20
2018-05-01T04:22:43.361Z,19.98
2018-05-01T04:23:43.230Z,20.18
2018-05-01T04:24:43.196Z,20
2018-05-01T04:25:43.343Z,19.98
2018-05-01T04:26:43.273Z,20.17
2018-05-01T04:27:43.222Z,19.99
2018-05-01T04:28:43.066Z,19.97
2018-05-01T04:29:43.241Z,20.16
2018-05-01T04:30:43.337Z,19.99
2018-05-01T04:31:43.199Z,19.96
2018-05-01T04:37:36.108Z,20.01
2018-05-01T04:38:36.192Z,20.06
2018-05-01T04:39:36.004Z,19.96
2018-05-01T04:40:36.064Z,19.96
2018-05-01T04:41:36.155Z,20.15
2018-05-01T04:42:36.178Z,19.99
2018-05-01T04:43:36.125Z,19.96
2018-05-01T04:44:36.207Z,20.16
2018-05-01T04:45:36.239Z,20
2018-05-01T04:46:36.037Z,19.98
2018-05-01T04:47:36.099Z,20.17
2018-05-01T04:48:36.116Z,20
2018-05-01T04:49:38.080Z,19.97
2018-05-01T04:50:36.055Z,20.16
2018-05-01T04:51:36.548Z,20
2018-05-01T04:52:36.145Z,19.96
2018-05-01T04:53:36.146Z,20.16
2018-05-01T04:54:36.131Z,20
2018-05-01T04:55:36.017Z,19.97
2018-05-01T04:56:36.192Z,20.16
2018-05-01T04:57:36.112Z,20
2018-05-01T04:58:36.589Z,20
2018-05-01T04:59:36.164Z,20.18
2018-05-01T05:00:36.165Z,20
2018-05-01T05:01:36.139Z,19.99
2018-05-01T05:02:36.033Z,20.17
2018-05-01T05:03:36.171Z,20
2018-05-01T05:04:36.157Z,19.98
2018-05-01T05:05:36.225Z,20.18
2018-05-01T05:06:36.070Z,20.01
2018-05-01T05:07:36.290Z,19.99
2018-05-01T05:08:36.074Z,20.18
2018-05-01T05:09:36.659Z,20
2018-05-01T05:10:36.033Z,19.99
2018-05-01T05:11:36.063Z,20.18
2018-05-01T05:12:36.167Z,20.01
2018-05-01T05:13:36.516Z,19.99
2018-05-01T05:14:36.111Z,20.18
2018-05-01T05:15:36.157Z,20.01
2018-05-01T05:16:36.196Z,20
2018-05-01T05:17:36.174Z,20.18
2018-05-01T05:18:36.135Z,20
2018-05-01T05:19:36.168Z,19.99
2018-05-01T05:20:36.219Z,20.18
2018-05-01T05:21:36.166Z,20
2018-05-01T05:22:36.070Z,20
2018-05-01T05:23:36.295Z,20.18
2018-05-01T05:24:36.110Z,20.02
2018-05-01T05:25:36.268Z,20
2018-05-01T05:26:36.249Z,20.18
2018-05-01T05:27:36.213Z,20.01
2018-05-01T05:28:36.137Z,19.99
2018-05-01T05:29:36.151Z,20.18
2018-05-01T05:30:36.297Z,20.01
2018-05-01T05:31:36.127Z,20
2018-05-01T05:32:36.419Z,20.19
2018-05-01T05:33:36.201Z,20.02
2018-05-01T05:34:36.246Z,20
2018-05-01T05:35:36.382Z,20.18
2018-05-01T05:36:36.257Z,20.01
2018-05-01T05:37:36.244Z,19.99
2018-05-01T05:38:36.049Z,20.18
2018-05-01T05:39:36.080Z,20
2018-05-01T05:40:35.989Z,19.99
2018-05-01T05:41:36.044Z,20.18
2018-05-01T05:42:36.488Z,20
2018-05-01T05:43:36.289Z,19.99
2018-05-01T05:44:36.013Z,20.17
2018-05-01T05:45:36.068Z,20
2018-05-01T05:46:36.303Z,19.99
2018-05-01T05:47:36.216Z,20.17
2018-05-01T05:48:36.053Z,20
2018-05-01T05:49:36.221Z,20
2018-05-01T05:50:36.275Z,20.18
2018-05-01T05:51:36.227Z,20.01
2018-05-01T05:52:36.064Z,20
2018-05-01T05:53:36.014Z,20.18
2018-05-01T05:54:36.273Z,19.98
2018-05-01T05:55:36.245Z,19.99
2018-05-01T05:56:36.138Z,20.18
2018-05-01T05:57:36.072Z,20
2018-05-01T05:58:36.341Z,19.99
2018-05-01T05:59:36.001Z,20.18
2018-05-01T06:00:36.144Z,20.02
2018-05-01T06:01:36.046Z,20
2018-05-01T06:02:36.142Z,20.18
2018-05-01T06:03:36.160Z,20.01
2018-05-01T06:04:36.303Z,19.99
2018-05-01T06:05:36.045Z,20.18
2018-05-01T06:06:36.371Z,20.01
2018-05-01T06:07:36.317Z,19.97
2018-05-01T06:08:36.280Z,20.17
2018-05-01T06:09:36.151Z,20.01
2018-05-01T06:10:36.160Z,19.99
2018-05-01T06:11:36.168Z,20.18
2018-05-01T06:12:36.149Z,20.01
2018-05-01T06:13:36.383Z,19.98
2018-05-01T06:14:36.125Z,20.18
2018-05-01T06:15:36.283Z,20
2018-05-01T06:16:36.195Z,19.98
2018-05-01T06:17:36.173Z,20.17
2018-05-01T06:18:36.065Z,20
2018-05-01T06:19:35.996Z,19.99
2018-05-01T06:20:36.193Z,20.17
2018-05-01T06:21:36.151Z,20
2018-05-01T06:22:36.062Z,19.97
2018-05-01T06:23:36.200Z,20.16
2018-05-01T06:24:36.211Z,20
2018-05-01T06:25:36.024Z,19.98
2018-05-01T06:26:36.101Z,20.17
2018-05-01T06:27:35.887Z,20
2018-05-01T06:28:36.216Z,19.97
2018-05-01T06:29:36.090Z,20.17
2018-05-01T06:30:36.132Z,19.99
2018-05-01T06:31:36.188Z,19.95
2018-05-01T06:32:36.064Z,20.16
2018-05-01T06:33:36.148Z,20
2018-05-01T06:34:36.077Z,19.99
2018-05-01T06:35:36.141Z,20.18
2018-05-01T06:36:36.108Z,20
2018-05-01T06:37:36.033Z,19.98
2018-05-01T06:38:36.085Z,20.16
2018-05-01T06:39:36.089Z,20
2018-05-01T06:40:36.150Z,19.98
2018-05-01T06:41:36.224Z,20.16
2018-05-01T06:42:36.228Z,20
2018-05-01T06:43:36.188Z,19.99
2018-05-01T06:44:36.194Z,20.17
2018-05-01T06:45:36.073Z,20
2018-05-01T06:46:36.319Z,19.98
2018-05-01T06:47:36.223Z,20.16
2018-05-01T06:48:36.137Z,19.98
2018-05-01T06:49:36.149Z,19.97
2018-05-01T06:50:36.134Z,20.16
2018-05-01T06:51:36.070Z,20
2018-05-01T06:52:36.273Z,19.98
2018-05-01T06:53:36.519Z,20.17
2018-05-01T06:54:36.285Z,20
2018-05-01T06:55:36.147Z,19.98
2018-05-01T06:56:36.075Z,20.16
2018-05-01T06:57:36.379Z,19.99
2018-05-01T06:58:36.086Z,19.97
2018-05-01T06:59:36.135Z,20.16
2018-05-01T07:00:36.276Z,19.99
2018-05-01T07:01:36.149Z,19.98
2018-05-01T07:02:36.252Z,20.16
2018-05-01T07:03:36.194Z,20
2018-05-01T07:04:37.668Z,19.97
2018-05-01T07:05:36.280Z,20.16
2018-05-01T07:06:36.144Z,20
2018-05-01T07:07:36.157Z,19.98
2018-05-01T07:08:36.332Z,20.16
2018-05-01T07:09:36.138Z,19.99
2018-05-01T07:10:36.086Z,19.96
2018-05-01T07:11:36.142Z,20.15
2018-05-01T07:12:36.161Z,20
2018-05-01T07:13:36.246Z,19.98
2018-05-01T07:14:36.227Z,20.15
2018-05-01T07:15:36.080Z,19.99
2018-05-01T07:16:36.322Z,19.97
2018-05-01T07:17:36.164Z,20.16
2018-05-01T07:18:36.336Z,20
2018-05-01T07:19:36.198Z,19.98
2018-05-01T07:20:36.072Z,20.16
2018-05-01T07:21:36.217Z,19.99
2018-05-01T07:22:36.103Z,19.96
2018-05-01T07:23:36.150Z,20.15
2018-05-01T07:24:36.212Z,20
2018-05-01T07:25:36.296Z,19.97
2018-05-01T07:26:36.259Z,20.16
2018-05-01T07:27:36.296Z,20
2018-05-01T07:28:36.420Z,19.97
2018-05-01T07:29:36.282Z,20.16
2018-05-01T07:30:36.257Z,19.99
2018-05-01T07:31:36.132Z,19.96
2018-05-01T07:32:36.153Z,20.16
2018-05-01T07:33:36.179Z,19.99
2018-05-01T07:34:36.087Z,19.97
2018-05-01T07:35:36.599Z,20.16
2018-05-01T07:36:36.280Z,20
2018-05-01T07:37:36.219Z,19.97
2018-05-01T07:38:36.246Z,20.16
2018-05-01T07:39:36.159Z,20
2018-05-01T07:40:36.015Z,19.97
2018-05-01T07:41:36.933Z,20.16
2018-05-01T07:42:36.329Z,19.99
2018-05-01T07:43:36.158Z,19.96
2018-05-01T07:44:36.185Z,20.15
2018-05-01T07:45:36.229Z,19.99
2018-05-01T07:46:36.295Z,19.97
2018-05-01T07:47:36.240Z,20.16
2018-05-01T07:48:36.203Z,19.99
2018-05-01T07:49:36.222Z,19.96
2018-05-01T07:50:36.095Z,20.16
2018-05-01T07:51:36.129Z,20
2018-05-01T07:52:36.112Z,19.97
2018-05-01T07:53:36.068Z,20.16
2018-05-01T07:54:36.146Z,19.97
2018-05-01T07:55:36.201Z,19.94
2018-05-01T07:56:36.145Z,20.14
2018-05-01T07:57:36.370Z,19.99
2018-05-01T07:58:36.289Z,19.95
2018-05-01T07:59:36.080Z,20.15
2018-05-01T08:00:36.078Z,19.98
2018-05-01T08:01:36.176Z,19.97
2018-05-01T08:02:36.434Z,20.1
2018-05-01T08:03:36.129Z,19.96
2018-05-01T08:04:36.415Z,19.88
2018-05-01T08:05:36.507Z,20.04
2018-05-01T08:06:36.295Z,19.93
2018-05-01T08:07:36.114Z,19.94
2018-05-01T08:08:36.302Z,20.17
2018-05-01T08:09:36.069Z,20.06
2018-05-01T08:10:36.046Z,20.01
2018-05-01T08:11:36.306Z,20.17
2018-05-01T08:12:36.133Z,20.04
2018-05-01T08:13:36.153Z,20.06
2018-05-01T08:14:36.065Z,20.23
2018-05-01T08:15:36.448Z,20.1
2018-05-01T08:16:36.271Z,20.11
2018-05-01T08:17:36.350Z,20.3
2018-05-01T08:18:37.789Z,20.18
2018-05-01T08:19:36.147Z,20.18
2018-05-01T08:20:36.271Z,20.33
2018-05-01T08:21:36.125Z,20.2
2018-05-01T08:22:36.180Z,20.16
2018-05-01T08:23:36.107Z,20.34
2018-05-01T08:24:36.220Z,20.18
2018-05-01T08:25:36.142Z,20.16
2018-05-01T08:26:36.194Z,20.35
2018-05-01T08:27:36.202Z,20.21
2018-05-01T08:28:36.139Z,20.2
2018-05-01T08:29:36.261Z,20.37
2018-05-01T08:30:36.786Z,20.25
2018-05-01T08:31:36.024Z,20.24
2018-05-01T08:32:36.163Z,20.4
2018-05-01T08:33:36.126Z,20.24
2018-05-01T08:34:36.244Z,20.2
2018-05-01T08:35:36.183Z,20.38
2018-05-01T08:36:36.294Z,20.22
2018-05-01T08:37:36.854Z,20.22
2018-05-01T08:38:36.192Z,20.4
2018-05-01T08:39:36.119Z,20.28
2018-05-01T08:40:36.168Z,20.26
2018-05-01T08:41:36.093Z,20.45
2018-05-01T08:42:36.533Z,20.32
2018-05-01T08:43:36.200Z,20.27
2018-05-01T08:44:36.107Z,20.45
2018-05-01T08:45:36.312Z,20.27
2018-05-01T08:46:36.069Z,20.44
2018-05-01T08:47:36.803Z,20.38
2018-05-01T08:48:36.187Z,20.18
2018-05-01T08:49:36.179Z,20.21
2018-05-01T08:50:36.198Z,20.39
2018-05-01T08:51:36.198Z,20.27
2018-05-01T08:52:36.080Z,20.28
2018-05-01T08:53:36.066Z,20.45
2018-05-01T08:54:36.048Z,20.31
2018-05-01T08:55:36.319Z,20.28
2018-05-01T08:56:36.301Z,20.46
2018-05-01T08:57:36.145Z,20.3
2018-05-01T08:58:36.409Z,20.26
2018-05-01T08:59:36.268Z,20.46
2018-05-01T09:00:36.026Z,20.32
2018-05-01T09:01:36.267Z,20.3
2018-05-01T09:02:36.101Z,20.47
2018-05-01T09:03:36.205Z,20.33
2018-05-01T09:04:36.149Z,20.32
2018-05-01T09:05:36.229Z,20.51
2018-05-01T09:06:36.323Z,20.33
2018-05-01T09:07:36.272Z,20.31
2018-05-01T09:08:36.197Z,20.49
2018-05-01T09:09:36.789Z,20.33
2018-05-01T09:10:36.412Z,20.32
2018-05-01T09:11:36.114Z,20.51
2018-05-01T09:12:53.106Z,20.36
2018-05-01T09:13:36.199Z,20.37
2018-05-01T09:14:36.121Z,20.55
2018-05-01T09:15:35.870Z,20.41
2018-05-01T09:16:35.968Z,20.36
2018-05-01T09:17:36.504Z,20.53
2018-05-01T09:18:36.057Z,20.36
2018-05-01T09:19:36.189Z,20.35
2018-05-01T09:20:36.360Z,20.54
2018-05-01T09:21:36.135Z,20.4
2018-05-01T09:22:36.164Z,20.38
2018-05-01T09:23:36.127Z,20.55
2018-05-01T09:24:36.201Z,20.42
2018-05-01T09:25:36.572Z,20.37
2018-05-01T09:26:36.223Z,20.57
2018-05-01T09:27:36.163Z,20.45
2018-05-01T09:28:36.250Z,20.41
2018-05-01T09:29:36.110Z,20.59
2018-05-01T09:30:36.171Z,20.43
2018-05-01T09:31:36.144Z,20.4
2018-05-01T09:32:36.548Z,20.57
2018-05-01T09:33:36.011Z,20.44
2018-05-01T09:34:36.022Z,20.42
2018-05-01T09:35:36.056Z,20.6
2018-05-01T09:36:36.154Z,20.44
2018-05-01T09:37:36.189Z,20.41
2018-05-01T09:38:36.319Z,20.6
2018-05-01T09:39:36.081Z,20.45
2018-05-01T09:40:36.181Z,20.43
2018-05-01T09:41:36.055Z,20.6
2018-05-01T09:42:36.107Z,20.42
2018-05-01T09:43:36.128Z,20.38
2018-05-01T09:44:36.063Z,20.54
2018-05-01T09:45:36.084Z,20.38
2018-05-01T09:46:36.046Z,20.36
2018-05-01T09:47:36.400Z,20.53
2018-05-01T09:48:36.020Z,20.35
2018-05-01T09:49:36.373Z,20.35
2018-05-01T09:50:36.081Z,20.51
2018-05-01T09:51:36.199Z,20.35
2018-05-01T09:52:36.019Z,20.33
2018-05-01T09:53:36.030Z,20.51
2018-05-01T09:54:36.161Z,20.3
2018-05-01T09:55:36.285Z,20.29
2018-05-01T09:56:36.053Z,20.5
2018-05-01T09:57:36.152Z,20.38
2018-05-01T09:58:36.083Z,20.34
2018-05-01T09:59:36.080Z,20.53
2018-05-01T10:00:36.015Z,20.36
2018-05-01T10:01:36.168Z,20.3
2018-05-01T10:02:36.076Z,20.49
2018-05-01T10:03:36.179Z,20.39
2018-05-01T10:04:35.983Z,20.38
2018-05-01T10:05:36.130Z,20.55
2018-05-01T10:06:36.024Z,20.41
2018-05-01T10:07:36.094Z,20.42
2018-05-01T10:08:36.096Z,20.53
2018-05-01T10:09:36.265Z,20.35
2018-05-01T10:10:36.014Z,20.3
2018-05-01T10:11:36.167Z,20.47
2018-05-01T10:12:36.072Z,20.33
2018-05-01T10:13:36.237Z,20.29
2018-05-01T10:14:36.095Z,20.5
2018-05-01T10:15:36.050Z,20.32
2018-05-01T10:16:35.966Z,20.3
2018-05-01T10:17:36.011Z,20.46
2018-05-01T10:18:36.141Z,20.3
2018-05-01T10:19:36.131Z,20.31
2018-05-01T10:20:36.013Z,20.49
2018-05-01T10:21:36.215Z,20.35
2018-05-01T10:22:36.099Z,20.35
2018-05-01T10:23:36.059Z,20.52
2018-05-01T10:24:36.003Z,20.37
2018-05-01T10:25:36.153Z,20.36
2018-05-01T10:26:36.042Z,20.53
2018-05-01T10:27:36.074Z,20.35
2018-05-01T10:28:36.437Z,20.34
2018-05-01T10:29:36.388Z,20.53
2018-05-01T10:30:36.103Z,20.38
2018-05-01T10:31:36.012Z,20.36
2018-05-01T10:32:36.187Z,20.52
2018-05-01T10:33:36.046Z,20.36
2018-05-01T10:34:36.250Z,20.35
2018-05-01T10:35:36.186Z,20.53
2018-05-01T10:36:36.170Z,20.38
2018-05-01T10:37:36.055Z,20.37
2018-05-01T10:38:37.534Z,20.52
2018-05-01T10:39:35.995Z,20.38
2018-05-01T10:40:36.225Z,20.36
2018-05-01T10:41:36.271Z,20.53
2018-05-01T10:42:36.081Z,20.4
2018-05-01T10:43:36.137Z,20.35
2018-05-01T10:44:35.987Z,20.54
2018-05-01T10:45:36.261Z,20.38
2018-05-01T10:46:36.210Z,20.38
2018-05-01T10:47:36.064Z,20.57
2018-05-01T10:48:36.075Z,20.41
2018-05-01T10:49:36.168Z,20.41
2018-05-01T10:50:36.127Z,20.57
2018-05-01T10:51:36.213Z,20.4
2018-05-01T10:52:36.180Z,20.41
2018-05-01T10:53:36.241Z,20.59
2018-05-01T10:54:36.700Z,20.43
2018-05-01T10:55:36.168Z,20.41
2018-05-01T10:56:36.119Z,20.59
2018-05-01T10:57:35.934Z,20.4
2018-05-01T10:58:36.037Z,20.41
2018-05-01T10:59:36.069Z,20.59
2018-05-01T11:00:36.490Z,20.46
2018-05-01T11:01:35.987Z,20.47
2018-05-01T11:02:36.091Z,20.64
2018-05-01T11:03:36.197Z,20.47
2018-05-01T11:04:35.955Z,20.43
2018-05-01T11:05:36.038Z,20.6
2018-05-01T11:06:36.227Z,20.45
2018-05-01T11:07:36.022Z,20.43
2018-05-01T11:08:36.169Z,20.63
2018-05-01T11:09:35.872Z,20.48
2018-05-01T11:10:36.088Z,20.46
2018-05-01T11:11:36.130Z,20.63
2018-05-01T11:12:35.971Z,20.42
2018-05-01T11:13:36.112Z,20.37
2018-05-01T11:14:36.021Z,20.57
2018-05-01T11:15:36.084Z,20.41
2018-05-01T11:16:36.024Z,20.41
2018-05-01T11:17:36.415Z,20.53
2018-05-01T11:18:36.127Z,20.38
2018-05-01T11:19:36.173Z,20.38
2018-05-01T11:20:36.181Z,20.57
2018-05-01T11:21:36.210Z,20.38
2018-05-01T11:22:36.140Z,20.38
2018-05-01T11:23:35.936Z,20.53
2018-05-01T11:24:36.500Z,20.38
2018-05-01T11:25:36.070Z,20.4
2018-05-01T11:26:36.062Z,20.58
2018-05-01T11:27:35.994Z,20.45
2018-05-01T11:28:36.570Z,20.41
2018-05-01T11:29:36.021Z,20.58
2018-05-01T11:30:36.191Z,20.42
2018-05-01T11:31:35.999Z,20.41
2018-05-01T11:32:36.015Z,20.57
2018-05-01T11:33:36.541Z,20.42
2018-05-01T11:34:35.953Z,20.39
2018-05-01T11:35:36.005Z,20.57
2018-05-01T11:36:36.195Z,20.41
2018-05-01T11:37:36.139Z,20.41
2018-05-01T11:38:36.075Z,20.56
2018-05-01T11:39:36.173Z,20.41
2018-05-01T11:40:35.961Z,20.41
2018-05-01T11:41:36.168Z,20.55
2018-05-01T11:42:36.177Z,20.43
2018-05-01T11:43:36.256Z,20.37
2018-05-01T11:44:36.127Z,20.55
2018-05-01T11:45:36.151Z,20.41
2018-05-01T11:46:36.057Z,20.36
2018-05-01T11:47:36.106Z,20.53
2018-05-01T11:48:35.993Z,20.35
2018-05-01T11:49:36.120Z,20.3
2018-05-01T11:50:37.885Z,20.48
2018-05-01T11:51:35.951Z,20.3
2018-05-01T11:52:36.020Z,20.28
2018-05-01T11:53:36.065Z,20.44
2018-05-01T11:54:36.156Z,20.27
2018-05-01T11:55:36.074Z,20.25
2018-05-01T11:56:36.179Z,20.44
2018-05-01T11:57:35.993Z,20.27
2018-05-01T11:58:36.120Z,20.24
2018-05-01T11:59:35.942Z,20.41
2018-05-01T12:00:36.225Z,20.24
2018-05-01T12:01:36.004Z,20.24
2018-05-01T12:02:36.469Z,20.43
2018-05-01T12:03:36.090Z,20.25
2018-05-01T12:04:36.091Z,20.24
2018-05-01T12:05:36.103Z,20.43
2018-05-01T12:06:36.095Z,20.24
2018-05-01T12:07:35.890Z,20.21
2018-05-01T12:08:36.065Z,20.4
2018-05-01T12:09:35.957Z,20.22
2018-05-01T12:10:36.414Z,20.21
2018-05-01T12:11:36.021Z,20.39
2018-05-01T12:12:36.131Z,20.24
2018-05-01T12:13:36.005Z,20.21
2018-05-01T12:14:36.123Z,20.39
2018-05-01T12:15:36.180Z,20.21
2018-05-01T12:16:36.109Z,20.18
2018-05-01T12:17:36.219Z,20.38
2018-05-01T12:18:36.524Z,20.2
2018-05-01T12:19:35.999Z,20.19
2018-05-01T12:20:36.013Z,20.39
2018-05-01T12:21:36.062Z,20.19
2018-05-01T12:22:36.030Z,20.18
2018-05-01T12:23:36.269Z,20.36
2018-05-01T12:24:35.906Z,20.2
2018-05-01T12:25:36.055Z,20.18
2018-05-01T12:26:35.962Z,20.36
2018-05-01T12:27:36.080Z,20.21
2018-05-01T12:28:36.131Z,20.17
2018-05-01T12:29:36.190Z,20.36
2018-05-01T12:30:36.111Z,20.2
2018-05-01T12:31:36.021Z,20.19
2018-05-01T12:32:36.261Z,20.37
2018-05-01T12:33:36.116Z,20.21
2018-05-01T12:34:36.185Z,20.18
2018-05-01T12:35:36.194Z,20.35
2018-05-01T12:36:37.065Z,20.21
2018-05-01T12:37:36.024Z,20.17
2018-05-01T12:38:36.178Z,20.37
2018-05-01T12:39:36.206Z,20.19
2018-05-01T12:40:36.176Z,20.17
2018-05-01T12:41:36.015Z,20.35
2018-05-01T12:42:36.059Z,20.17
2018-05-01T12:43:36.104Z,20.15
2018-05-01T12:44:36.165Z,20.33
2018-05-01T12:45:36.320Z,20.17
2018-05-01T12:46:35.934Z,20.15
2018-05-01T12:47:36.040Z,20.34
2018-05-01T12:48:36.398Z,20.16
2018-05-01T12:49:35.910Z,20.15
2018-05-01T12:50:36.243Z,20.34
2018-05-01T12:51:36.252Z,20.17
2018-05-01T12:52:36.249Z,20.15
2018-05-01T12:53:36.268Z,20.34
2018-05-01T12:54:35.947Z,20.16
2018-05-01T12:55:36.113Z,20.16
2018-05-01T12:56:36.105Z,20.33
2018-05-01T12:57:36.187Z,20.15
2018-05-01T12:58:36.048Z,20.13
2018-05-01T12:59:36.076Z,20.33
2018-05-01T13:00:36.029Z,20.15
2018-05-01T13:01:36.208Z,20.12
2018-05-01T13:02:36.175Z,20.3
2018-05-01T13:03:36.074Z,20.16
2018-05-01T13:04:36.051Z,20.12